Terminal Aerodrome Forecast
Issued by NWS

Home | Current Version | Previous Version | Text Only | Print | Product List | Glossary On
Versions: 1 2 3 4 5 6 7 8 9 10 11 12 13 14 15 16 17 18 19 20 21 22 23 24 25
000
FTPA31 PHFO 311700
TAFOGG
TAF
PHOG 311737Z 3118/0118 04010KT P6SM SCT045
     FM311900 06018G27KT P6SM FEW030 SCT050
     FM010600 05012KT P6SM VCSH SCT025 BKN040
      AMD LTD TO WX VIS AND WIND 0109/0116=

USA.gov is the U.S. government's official web portal to all federal, state and local government web resources and services.